Accueil
METAR-TAF:

METAR-TAF

Aéroports :

Grosse Ile Municipal Airport

Détroit / Grosse Île, Michigan, États-Unis

latitude: 42-05-55N, longitude: 083-09-40W, altitude: 180 m

Observation

Le bulletin a été fait il y a 12 minutes, à 07:55 UTC
Vent 7 kt de sud/sud-ouest
Température 16°C
Humidité 82%
Pression 1013 hPa
Visibilité: 16.1 km
Nuages épars à une hauteur de 11000 ft

METAR: KONZ 210755Z AUTO 20007KT 10SM SCT110 16/13 A2990 RMK AO2 T01570125 P0001

Heure: 04:07 (08:07 UTC)


TAF: absent

Observations et prévisions météorologiques de plus de 4000 aéroports (messages METAR et TAF).

Les stations disponibles sont représentées par des disques jaunes et rouges sur la carte.

Passer la souris dessus pour voir le nom de la station.

Cliquer dessus pour voir les observations et prévisions météorologiques.

Pour changer de carte: cliquez sur les boutons verts avec une croix noire pour zoomer, sur le bouton vert avec un tiret pour effectuer un zoom arrière, ou sur les flèches vertes pour les cartes adjacentes.


METAR-TAF: